createdAt,value
2018-12-22T00:01:06.326Z,46.37
2018-12-22T00:03:34.877Z,47.83
2018-12-22T00:06:03.340Z,51.30
2018-12-22T00:08:31.683Z,50.53
2018-12-22T00:13:27.469Z,45.83
2018-12-22T00:15:55.768Z,47.90
2018-12-22T00:18:24.068Z,43.50
2018-12-22T00:20:52.365Z,41.40
2018-12-22T00:23:20.663Z,44.83
2018-12-22T00:25:49.406Z,38.70
2018-12-22T00:28:22.131Z,38.17
2018-12-22T00:30:48.165Z,39.37
2018-12-22T00:33:16.517Z,30.43
2018-12-22T00:35:44.814Z,32.40
2018-12-22T00:38:13.569Z,35.43
2018-12-22T00:40:42.005Z,37.80
2018-12-22T00:43:10.451Z,41.37
2018-12-22T00:45:38.897Z,46.30
2018-12-22T00:48:07.297Z,37.77
2018-12-22T00:50:35.693Z,37.90
2018-12-22T00:53:04.009Z,35.27
2018-12-22T00:55:32.374Z,35.70
2018-12-22T00:58:00.985Z,45.37
2018-12-22T01:00:29.350Z,41.07
2018-12-22T01:02:57.825Z,37.50
2018-12-22T01:05:26.134Z,36.33
2018-12-22T01:07:55.033Z,33.63
2018-12-22T01:10:23.673Z,38.77
2018-12-22T01:12:52.071Z,45.67
2018-12-22T01:15:20.601Z,40.67
2018-12-22T01:17:48.974Z,37.20
2018-12-22T01:20:17.375Z,42.47
2018-12-22T01:22:45.773Z,37.30
2018-12-22T01:25:14.174Z,32.67
2018-12-22T01:27:42.621Z,37.63
2018-12-22T01:32:38.089Z,35.47
2018-12-22T01:35:06.996Z,38.57
2018-12-22T01:37:35.487Z,39.30
2018-12-22T01:40:04.585Z,29.27
2018-12-22T01:42:32.999Z,29.93
2018-12-22T01:45:01.321Z,38.30
2018-12-22T01:47:30.380Z,30.63
2018-12-22T01:49:58.650Z,33.23
2018-12-22T01:52:26.945Z,31.17
2018-12-22T01:54:55.434Z,32.73
2018-12-22T01:57:23.741Z,27.33
2018-12-22T01:59:52.234Z,27.97
2018-12-22T02:02:21.092Z,25.53
2018-12-22T02:04:49.374Z,32.73
2018-12-22T02:07:17.889Z,26.93
2018-12-22T02:09:46.595Z,28.27
2018-12-22T02:12:15.045Z,25.10
2018-12-22T02:14:43.401Z,24.17
2018-12-22T02:17:11.733Z,17.37
2018-12-22T02:19:40.246Z,18.97
2018-12-22T02:22:08.600Z,19.03
2018-12-22T02:24:37.002Z,17.20
2018-12-22T02:27:05.410Z,18.83
2018-12-22T02:29:33.667Z,18.40
2018-12-22T02:32:02.192Z,18.10
2018-12-22T02:34:30.671Z,25.17
2018-12-22T02:36:59.236Z,20.53
2018-12-22T02:39:27.608Z,25.27
2018-12-22T02:41:55.878Z,23.50
2018-12-22T02:44:24.236Z,21.43
2018-12-22T02:46:55.298Z,20.27
2018-12-22T02:49:23.741Z,34.57
2018-12-22T02:51:52.035Z,29.83
2018-12-22T02:54:20.498Z,32.37
2018-12-22T02:56:48.826Z,34.53
2018-12-22T02:59:17.095Z,31.43
2018-12-22T03:01:45.377Z,37.10
2018-12-22T03:04:13.691Z,36.00
2018-12-22T03:06:42.504Z,37.47
2018-12-22T03:09:10.959Z,30.30
2018-12-22T03:11:39.459Z,28.83
2018-12-22T03:14:07.757Z,27.80
2018-12-22T03:16:36.114Z,23.90
2018-12-22T03:19:04.486Z,22.20
2018-12-22T03:21:32.775Z,19.57
2018-12-22T03:24:01.121Z,16.67
2018-12-22T03:26:29.415Z,26.27
2018-12-22T03:28:57.887Z,21.67
2018-12-22T03:31:26.294Z,19.53
2018-12-22T03:33:54.593Z,17.40
2018-12-22T03:36:22.883Z,23.63
2018-12-22T03:38:51.420Z,16.97
2018-12-22T03:41:19.797Z,17.33
2018-12-22T03:43:48.099Z,16.73
2018-12-22T03:46:16.447Z,26.73
2018-12-22T03:48:44.751Z,22.00
2018-12-22T03:51:13.989Z,16.30
2018-12-22T03:53:42.306Z,18.97
2018-12-22T03:56:10.581Z,21.03
2018-12-22T03:58:38.957Z,18.87
2018-12-22T04:01:07.375Z,18.57
2018-12-22T04:03:35.893Z,23.33
2018-12-22T04:06:04.296Z,23.67
2018-12-22T04:08:32.631Z,25.03
2018-12-22T04:11:01.163Z,15.80
2018-12-22T04:13:29.426Z,17.37
2018-12-22T04:15:57.733Z,17.80
2018-12-22T04:18:26.030Z,16.90
2018-12-22T04:20:54.398Z,16.57
2018-12-22T04:23:22.806Z,14.93
2018-12-22T04:25:51.123Z,14.63
2018-12-22T04:28:19.450Z,16.33
2018-12-22T04:30:48.074Z,16.60
2018-12-22T04:33:16.418Z,12.63
2018-12-22T04:35:44.925Z,18.67
2018-12-22T04:38:13.267Z,13.53
2018-12-22T04:40:41.575Z,16.30
2018-12-22T04:43:09.894Z,19.23
2018-12-22T04:45:38.275Z,13.90
2018-12-22T04:48:06.562Z,14.20
2018-12-22T04:50:35.978Z,13.47
2018-12-22T04:53:04.396Z,16.23
2018-12-22T04:55:32.790Z,11.60
2018-12-22T04:58:00.739Z,19.37
2018-12-22T05:00:29.019Z,19.27
2018-12-22T05:02:58.141Z,17.30
2018-12-22T05:07:53.499Z,13.97
2018-12-22T05:10:21.834Z,12.93
2018-12-22T05:12:50.221Z,11.40
2018-12-22T05:15:18.693Z,12.97
2018-12-22T05:17:47.066Z,9.60
2018-12-22T05:20:15.607Z,10.10
2018-12-22T05:22:43.985Z,8.73
2018-12-22T05:25:12.460Z,6.97
2018-12-22T05:27:40.786Z,7.83
2018-12-22T05:30:09.549Z,10.17
2018-12-22T05:32:37.885Z,14.10
2018-12-22T05:35:06.285Z,10.33
2018-12-22T05:37:35.126Z,11.70
2018-12-22T05:40:03.477Z,11.67
2018-12-22T05:42:32.015Z,8.97
2018-12-22T05:45:00.330Z,9.23
2018-12-22T05:47:28.646Z,11.93
2018-12-22T05:49:57.275Z,9.23
2018-12-22T05:52:25.573Z,13.07
2018-12-22T05:54:53.965Z,11.63
2018-12-22T05:57:21.319Z,10.30
2018-12-22T05:59:49.616Z,14.53
2018-12-22T06:04:43.776Z,16.70
2018-12-22T06:07:12.196Z,14.00
2018-12-22T06:09:40.911Z,11.07
2018-12-22T06:12:09.296Z,15.70
2018-12-22T06:14:37.767Z,16.03
2018-12-22T06:17:06.087Z,13.43
2018-12-22T06:19:34.405Z,9.10
2018-12-22T06:22:02.746Z,13.00
2018-12-22T06:24:31.110Z,11.27
2018-12-22T06:26:59.645Z,9.53
2018-12-22T06:29:27.929Z,16.60
2018-12-22T06:31:56.451Z,15.70
2018-12-22T06:34:24.896Z,18.43
2018-12-22T06:36:53.224Z,16.00
2018-12-22T06:39:21.956Z,13.20
2018-12-22T06:41:50.260Z,11.50
2018-12-22T06:44:18.552Z,9.53
2018-12-22T06:46:47.095Z,10.17
2018-12-22T06:49:14.466Z,11.50
2018-12-22T06:51:42.761Z,12.20
2018-12-22T06:54:11.097Z,9.80
2018-12-22T06:56:39.372Z,17.43
2018-12-22T06:59:08.147Z,11.33
2018-12-22T07:01:36.438Z,11.93
2018-12-22T07:04:04.742Z,12.77
2018-12-22T07:06:33.195Z,12.73
2018-12-22T07:09:01.880Z,12.77
2018-12-22T07:11:30.281Z,14.40
2018-12-22T07:13:58.836Z,17.10
2018-12-22T07:16:26.647Z,12.23
2018-12-22T07:18:55.821Z,15.27
2018-12-22T07:21:24.499Z,12.83
2018-12-22T07:23:52.945Z,9.37
2018-12-22T07:26:21.353Z,12.20
2018-12-22T07:28:49.798Z,13.10
2018-12-22T07:31:18.137Z,15.60
2018-12-22T07:33:46.550Z,13.53
2018-12-22T07:36:15.278Z,13.87
2018-12-22T07:38:46.040Z,9.97
2018-12-22T07:41:14.642Z,11.60
2018-12-22T07:43:43.094Z,11.87
2018-12-22T07:46:12.067Z,13.53
2018-12-22T07:48:42.724Z,14.13
2018-12-22T07:51:11.013Z,12.90
2018-12-22T07:53:39.349Z,10.97
2018-12-22T07:56:11.756Z,11.93
2018-12-22T07:58:40.130Z,13.77
2018-12-22T08:01:09.921Z,17.33
2018-12-22T08:06:06.196Z,19.43
2018-12-22T08:08:35.250Z,11.67
2018-12-22T08:11:03.603Z,19.77
2018-12-22T08:13:32.049Z,18.07
2018-12-22T08:16:00.631Z,17.03
2018-12-22T08:18:28.972Z,16.27
2018-12-22T08:20:57.461Z,9.67
2018-12-22T08:23:25.762Z,17.73
2018-12-22T08:25:54.093Z,13.80
2018-12-22T08:28:22.047Z,13.67
2018-12-22T08:30:52.081Z,11.27
2018-12-22T08:33:20.628Z,12.80
2018-12-22T08:35:49.055Z,10.53
2018-12-22T08:38:17.712Z,11.27
2018-12-22T08:40:46.173Z,12.40
2018-12-22T08:43:15.231Z,16.40
2018-12-22T08:45:43.609Z,15.30
2018-12-22T08:48:11.909Z,11.70
2018-12-22T08:50:40.389Z,13.17
2018-12-22T08:53:08.558Z,14.77
2018-12-22T08:55:36.954Z,15.50
2018-12-22T08:58:08.730Z,10.53
2018-12-22T09:00:37.158Z,14.33
2018-12-22T09:03:05.756Z,12.37
2018-12-22T09:08:11.699Z,9.90
2018-12-22T09:10:40.289Z,15.57
2018-12-22T09:13:09.277Z,10.03
2018-12-22T09:15:37.274Z,12.80
2018-12-22T09:18:06.026Z,9.07
2018-12-22T09:20:34.497Z,12.03
2018-12-22T09:23:02.875Z,9.20
2018-12-22T09:25:31.405Z,10.27
2018-12-22T09:27:59.849Z,10.63
2018-12-22T09:30:28.377Z,11.80
2018-12-22T09:32:57.407Z,12.97
2018-12-22T09:35:26.165Z,10.60
2018-12-22T09:37:54.498Z,16.93
2018-12-22T09:40:23.074Z,10.47
2018-12-22T09:42:51.546Z,10.23
2018-12-22T09:45:19.878Z,17.70
2018-12-22T09:47:48.186Z,13.30
2018-12-22T09:50:16.632Z,12.07
2018-12-22T09:52:45.066Z,14.60
2018-12-22T09:55:13.461Z,13.10
2018-12-22T09:57:41.828Z,16.37
2018-12-22T10:00:12.422Z,12.97
2018-12-22T10:02:40.958Z,16.73
2018-12-22T10:05:09.754Z,14.87
2018-12-22T10:07:38.209Z,19.30
2018-12-22T10:10:12.099Z,14.80
2018-12-22T10:12:40.538Z,13.50
2018-12-22T10:15:09.046Z,16.73
2018-12-22T10:17:37.578Z,14.47
2018-12-22T10:20:07.393Z,10.27
2018-12-22T10:22:35.702Z,11.17
2018-12-22T10:25:06.198Z,14.77
2018-12-22T10:27:35.443Z,10.87
2018-12-22T10:30:04.540Z,15.00
2018-12-22T10:32:32.829Z,13.07
2018-12-22T10:35:01.244Z,14.07
2018-12-22T10:37:29.523Z,17.07
2018-12-22T10:39:57.886Z,17.13
2018-12-22T10:42:25.279Z,14.23
2018-12-22T10:44:53.805Z,9.47
2018-12-22T10:47:22.352Z,14.90
2018-12-22T10:52:18.354Z,13.37
2018-12-22T10:54:47.121Z,17.07
2018-12-22T10:57:16.941Z,9.00
2018-12-22T10:59:45.294Z,12.67
2018-12-22T11:02:13.561Z,11.03
2018-12-22T11:04:41.890Z,11.13
2018-12-22T11:11:10.231Z,15.67
2018-12-22T11:13:57.130Z,16.20
2018-12-22T11:16:27.202Z,12.80
2018-12-22T11:18:57.959Z,15.00
2018-12-22T11:21:26.523Z,9.03
2018-12-22T11:23:54.895Z,14.30
2018-12-22T11:26:27.087Z,10.63
2018-12-22T11:29:00.789Z,10.67
2018-12-22T11:31:35.079Z,12.07
2018-12-22T11:34:07.963Z,11.17
2018-12-22T11:36:36.414Z,11.80
2018-12-22T11:39:07.015Z,11.77
2018-12-22T11:41:35.941Z,14.33
2018-12-22T11:44:04.365Z,15.90
2018-12-22T11:46:33.254Z,12.30
2018-12-22T11:49:24.301Z,17.07
2018-12-22T11:51:52.649Z,21.50
2018-12-22T11:54:20.957Z,14.83
2018-12-22T11:56:50.063Z,17.83
2018-12-22T11:59:18.337Z,18.73
2018-12-22T12:01:46.934Z,13.00
2018-12-22T12:04:23.070Z,17.90
2018-12-22T12:06:51.485Z,21.47
2018-12-22T12:09:19.931Z,12.63
2018-12-22T12:11:48.743Z,22.93
2018-12-22T12:14:17.494Z,14.90
2018-12-22T12:16:55.819Z,20.23
2018-12-22T12:19:26.970Z,13.97
2018-12-22T12:21:55.256Z,12.73
2018-12-22T12:24:24.042Z,14.07
2018-12-22T12:26:52.464Z,16.37
2018-12-22T12:29:21.694Z,15.60
2018-12-22T12:31:52.273Z,11.70
2018-12-22T12:34:20.605Z,15.80
2018-12-22T12:36:48.976Z,13.87
2018-12-22T12:39:18.262Z,13.77
2018-12-22T12:41:46.578Z,15.50
2018-12-22T12:44:14.867Z,10.20
2018-12-22T12:46:49.314Z,14.93
2018-12-22T12:49:18.583Z,12.43
2018-12-22T12:51:47.121Z,14.10
2018-12-22T12:54:15.533Z,10.87
2018-12-22T12:56:54.031Z,14.30
2018-12-22T12:59:22.870Z,17.57
2018-12-22T13:01:51.371Z,17.63
2018-12-22T13:07:19.447Z,13.17
2018-12-22T13:19:18.708Z,13.43
2018-12-22T13:24:49.898Z,14.67
2018-12-22T13:27:21.921Z,16.37
2018-12-22T13:29:52.769Z,19.13
2018-12-22T13:35:20.689Z,19.67
2018-12-22T13:37:53.345Z,16.30
2018-12-22T13:40:25.159Z,17.73
2018-12-22T13:43:15.590Z,11.43
2018-12-22T13:46:07.034Z,16.37
2018-12-22T13:51:42.811Z,15.47
2018-12-22T13:54:23.077Z,12.83
2018-12-22T14:03:02.308Z,18.40
2018-12-22T14:05:36.311Z,16.43
2018-12-22T14:08:11.961Z,14.37
2018-12-22T14:10:54.368Z,14.27
2018-12-22T14:16:54.621Z,17.60
2018-12-22T14:19:28.878Z,17.10
2018-12-22T14:22:08.603Z,15.70
2018-12-22T14:30:44.201Z,17.70
2018-12-22T14:33:16.347Z,17.73
2018-12-22T15:07:07.301Z,17.97
2018-12-22T15:09:48.381Z,15.77
2018-12-22T15:12:25.041Z,18.90
2018-12-22T15:18:01.887Z,22.20
2018-12-22T15:32:46.204Z,19.80
2018-12-22T15:38:25.361Z,21.30
2018-12-22T15:41:03.945Z,18.97
2018-12-22T15:52:29.226Z,19.17
2018-12-22T15:58:08.214Z,17.17
2018-12-22T16:00:59.011Z,16.50
2018-12-22T16:07:13.340Z,23.63
2018-12-22T16:09:52.779Z,20.77
2018-12-22T16:12:24.943Z,20.33
2018-12-22T16:15:01.525Z,20.67
2018-12-22T16:17:36.547Z,18.00
2018-12-22T16:23:08.454Z,16.17
2018-12-22T16:25:48.723Z,12.23
2018-12-22T16:28:30.259Z,18.67
2018-12-22T16:34:01.924Z,15.50
2018-12-22T16:36:36.185Z,16.37
2018-12-22T16:42:04.325Z,14.23
2018-12-22T17:06:35.879Z,20.03
2018-12-22T17:12:12.009Z,13.83
2018-12-22T17:20:51.001Z,15.97
2018-12-22T17:26:38.260Z,15.47
2018-12-22T17:29:12.292Z,19.77
2018-12-22T17:31:53.792Z,11.97
2018-12-22T17:40:34.259Z,15.07
2018-12-22T17:43:19.980Z,15.33
2018-12-22T17:48:58.242Z,17.00
2018-12-22T17:57:21.999Z,14.73
2018-12-22T18:03:03.164Z,13.30
2018-12-22T18:08:37.655Z,14.77
2018-12-22T18:11:09.890Z,15.67
2018-12-22T18:28:53.388Z,17.20
2018-12-22T18:49:15.045Z,19.50
2018-12-22T18:54:50.820Z,10.37
2018-12-22T18:57:27.447Z,17.07
2018-12-22T19:02:58.167Z,12.23
2018-12-22T19:05:44.116Z,14.87
2018-12-22T19:08:18.365Z,14.70
2018-12-22T19:11:03.769Z,11.07
2018-12-22T19:13:44.820Z,18.03
2018-12-22T19:19:14.677Z,18.83
2018-12-22T19:21:48.787Z,17.73
2018-12-22T19:24:39.554Z,16.83
2018-12-22T19:39:12.057Z,13.80
2018-12-22T19:48:17.593Z,15.77
2018-12-22T19:57:14.664Z,17.70
2018-12-22T20:05:45.521Z,21.67
2018-12-22T20:08:27.748Z,13.93
2018-12-22T20:11:22.454Z,20.87
2018-12-22T20:13:56.789Z,15.30
2018-12-22T20:16:33.265Z,15.97
2018-12-22T20:22:17.285Z,13.00
2018-12-22T20:24:52.330Z,11.93
2018-12-22T20:27:23.841Z,13.77
2018-12-22T20:30:18.461Z,18.00
2018-12-22T20:32:56.940Z,16.70
2018-12-22T20:35:37.118Z,14.60
2018-12-22T20:41:21.105Z,18.07
2018-12-22T20:43:56.704Z,15.67
2018-12-22T20:46:28.769Z,17.67
2018-12-22T20:49:30.977Z,12.07
2018-12-22T21:03:43.939Z,17.10
2018-12-22T21:06:31.351Z,14.47
2018-12-22T21:15:02.186Z,22.87
2018-12-22T21:17:31.967Z,18.90
2018-12-22T21:20:12.425Z,24.20
2018-12-22T21:22:52.304Z,14.27
2018-12-22T21:25:27.901Z,18.50
2018-12-22T21:33:56.668Z,18.70
2018-12-22T21:36:29.069Z,18.67
2018-12-22T21:39:04.511Z,16.23
2018-12-22T21:41:38.944Z,13.73
2018-12-22T21:44:15.301Z,15.20
2018-12-22T21:49:43.666Z,15.77
2018-12-22T21:52:18.164Z,15.87
2018-12-22T21:54:59.085Z,11.90
2018-12-22T21:57:33.823Z,19.97
2018-12-22T22:00:10.162Z,20.93
2018-12-22T22:02:48.760Z,19.67
2018-12-22T22:05:23.392Z,15.13
2018-12-22T22:07:54.966Z,12.83
